DAL227 KJFK-SBGR
Flight info
| Callsign | DAL227 |
|---|---|
| Flight time | N/A |
| Altitude | 35000 |
| Route | SHIPP Y487 KINGG/M082F350 DCT KINER L461 BOVIC M591 BDA L576 RKDIA/M082F370 L576 CITRS/N0479F370 UL576 TRAPP/N0482F360 UL576 ZY/N0478F380 UL576 NISKI/N0480F370 UL576 KOKDO/N0475F390 UL576 ISINA UZ37 PULUV UZ2 MULUV/N0475F380 UZ38 VUNOX |
| Aircraft | A339/H-SADE1E2E3GHIJ3J5M1P2RWXY/LB2D1 |
Departure
| Time | 2026-05-04 22:56 |
|---|---|
| Airport | John F. Kennedy International Airport (KJFK) |
Arrival
| Time | N/A |
|---|---|
| Airport | São Paulo/Guarulhos–Governor André Franco Montoro International Airport (SBGR) |
| Time | Latitude | Longitude | Altitude | Speed | Heading |
|---|---|---|---|---|---|
| 2026-05-04 22:30 | 40.63793 | -73.78181 | 27 ft | 0 kts | 85° |
| 2026-05-04 22:42 | 40.63792 | -73.78186 | 26 ft | 1 kts | 85° |
| 2026-05-04 22:42 | 40.63792 | -73.78195 | 26 ft | 1 kts | 85° |
| 2026-05-04 22:42 | 40.63791 | -73.78206 | 26 ft | 1 kts | 85° |
| 2026-05-04 22:43 | 40.63790 | -73.78215 | 26 ft | 1 kts | 85° |
| 2026-05-04 22:43 | 40.63790 | -73.78225 | 25 ft | 1 kts | 87° |
| 2026-05-04 22:43 | 40.63789 | -73.78248 | 24 ft | 3 kts | 107° |
| 2026-05-04 22:43 | 40.63797 | -73.78274 | 25 ft | 3 kts | 142° |
| 2026-05-04 22:44 | 40.63814 | -73.78290 | 25 ft | 3 kts | 174° |
| 2026-05-04 22:44 | 40.63815 | -73.78290 | 25 ft | 0 kts | 174° |
| 2026-05-04 22:46 | 40.63810 | -73.78289 | 24 ft | 2 kts | 174° |
| 2026-05-04 22:47 | 40.63795 | -73.78288 | 24 ft | 3 kts | 174° |
| 2026-05-04 22:47 | 40.63774 | -73.78285 | 26 ft | 3 kts | 174° |
| 2026-05-04 22:47 | 40.63748 | -73.78281 | 26 ft | 4 kts | 172° |
| 2026-05-04 22:47 | 40.63717 | -73.78276 | 26 ft | 5 kts | 172° |
| 2026-05-04 22:48 | 40.63675 | -73.78268 | 26 ft | 7 kts | 172° |
| 2026-05-04 22:48 | 40.63617 | -73.78258 | 26 ft | 9 kts | 173° |
| 2026-05-04 22:48 | 40.63548 | -73.78278 | 26 ft | 11 kts | 203° |
| 2026-05-04 22:48 | 40.63479 | -73.78320 | 27 ft | 9 kts | 189° |
| 2026-05-04 22:49 | 40.63436 | -73.78285 | 27 ft | 8 kts | 139° |
| 2026-05-04 22:49 | 40.63401 | -73.78223 | 27 ft | 10 kts | 123° |
| 2026-05-04 22:49 | 40.63363 | -73.78138 | 26 ft | 12 kts | 120° |
| 2026-05-04 22:49 | 40.63330 | -73.78024 | 27 ft | 14 kts | 100° |
| 2026-05-04 22:50 | 40.63345 | -73.77887 | 27 ft | 17 kts | 68° |
| 2026-05-04 22:50 | 40.63428 | -73.77769 | 27 ft | 19 kts | 33° |
| 2026-05-04 22:50 | 40.63554 | -73.77669 | 31 ft | 23 kts | 31° |
| 2026-05-04 22:50 | 40.63695 | -73.77560 | 31 ft | 24 kts | 31° |
| 2026-05-04 22:51 | 40.63846 | -73.77445 | 30 ft | 24 kts | 31° |
| 2026-05-04 22:51 | 40.63990 | -73.77331 | 32 ft | 25 kts | 31° |
| 2026-05-04 22:51 | 40.64142 | -73.77209 | 27 ft | 26 kts | 31° |
| 2026-05-04 22:51 | 40.64294 | -73.77092 | 26 ft | 25 kts | 31° |
| 2026-05-04 22:52 | 40.64451 | -73.76994 | 29 ft | 25 kts | 13° |
| 2026-05-04 22:52 | 40.64615 | -73.76908 | 28 ft | 26 kts | 32° |
| 2026-05-04 22:52 | 40.64752 | -73.76797 | 26 ft | 23 kts | 30° |
| 2026-05-04 22:52 | 40.64894 | -73.76688 | 27 ft | 24 kts | 30° |
| 2026-05-04 22:53 | 40.65036 | -73.76577 | 27 ft | 24 kts | 31° |
| 2026-05-04 22:53 | 40.65091 | -73.76515 | 27 ft | 9 kts | 60° |
| 2026-05-04 22:53 | 40.65088 | -73.76466 | 28 ft | 0 kts | 105° |
| 2026-05-04 22:54 | 40.65086 | -73.76457 | 28 ft | 2 kts | 105° |
| 2026-05-04 22:54 | 40.65075 | -73.76421 | 28 ft | 6 kts | 113° |
| 2026-05-04 22:55 | 40.65035 | -73.76368 | 28 ft | 10 kts | 158° |
| 2026-05-04 22:55 | 40.64969 | -73.76394 | 28 ft | 12 kts | 207° |
| 2026-05-04 22:55 | 40.64837 | -73.76488 | 26 ft | 48 kts | 210° |
| 2026-05-04 22:55 | 40.64346 | -73.76860 | 30 ft | 114 kts | 211° |
| 2026-05-04 22:56 | 40.63510 | -73.77506 | 43 ft | 163 kts | 208° |
| 2026-05-04 22:56 | 40.62577 | -73.78326 | 722 ft | 158 kts | 213° |
| 2026-05-04 22:56 | 40.61643 | -73.79153 | 1380 ft | 164 kts | 218° |
| 2026-05-04 22:56 | 40.60649 | -73.79945 | 1928 ft | 175 kts | 213° |
| 2026-05-04 22:57 | 40.59500 | -73.80679 | 2296 ft | 192 kts | 211° |
| 2026-05-04 22:57 | 40.58242 | -73.81476 | 2645 ft | 210 kts | 211° |
| 2026-05-04 22:57 | 40.56863 | -73.82360 | 2894 ft | 230 kts | 211° |
| 2026-05-04 22:57 | 40.55372 | -73.83329 | 3163 ft | 248 kts | 211° |
| 2026-05-04 22:58 | 40.53783 | -73.84380 | 3523 ft | 258 kts | 211° |
| 2026-05-04 22:58 | 40.52173 | -73.85443 | 4093 ft | 261 kts | 211° |
| 2026-05-04 22:58 | 40.50539 | -73.86513 | 4665 ft | 263 kts | 211° |
| 2026-05-04 22:58 | 40.48887 | -73.87585 | 4937 ft | 266 kts | 211° |
| 2026-05-04 22:59 | 40.47242 | -73.88631 | 4996 ft | 268 kts | 208° |
| 2026-05-04 22:59 | 40.45395 | -73.89129 | 4993 ft | 278 kts | 183° |
| 2026-05-04 22:59 | 40.43485 | -73.88575 | 4999 ft | 287 kts | 157° |
| 2026-05-04 22:59 | 40.41875 | -73.87015 | 5034 ft | 292 kts | 131° |
| 2026-05-04 23:00 | 40.40869 | -73.84715 | 5059 ft | 292 kts | 105° |
| 2026-05-04 23:00 | 40.40698 | -73.82093 | 5354 ft | 289 kts | 78° |
| 2026-05-04 23:00 | 40.41008 | -73.79490 | 5671 ft | 290 kts | 77° |
| 2026-05-04 23:00 | 40.41312 | -73.76861 | 5987 ft | 293 kts | 77° |
| 2026-05-04 23:01 | 40.41603 | -73.74210 | 6307 ft | 294 kts | 77° |
| 2026-05-04 23:01 | 40.41885 | -73.71550 | 6599 ft | 296 kts | 77° |
| 2026-05-04 23:01 | 40.42147 | -73.68998 | 6893 ft | 298 kts | 77° |
| 2026-05-04 23:01 | 40.42067 | -73.66268 | 7251 ft | 304 kts | 99° |
| 2026-05-04 23:02 | 40.41445 | -73.63656 | 7889 ft | 304 kts | 107° |
| 2026-05-04 23:02 | 40.40705 | -73.61074 | 8531 ft | 302 kts | 107° |
| 2026-05-04 23:02 | 40.40012 | -73.58476 | 9196 ft | 299 kts | 104° |
| 2026-05-04 23:02 | 40.39399 | -73.55883 | 9874 ft | 296 kts | 102° |
| 2026-05-04 23:03 | 40.38841 | -73.53295 | 10482 ft | 293 kts | 101° |
| 2026-05-04 23:03 | 40.38315 | -73.50733 | 11108 ft | 289 kts | 101° |
| 2026-05-04 23:03 | 40.37804 | -73.48211 | 11706 ft | 285 kts | 101° |
| 2026-05-04 23:03 | 40.37287 | -73.45657 | 12006 ft | 296 kts | 102° |
| 2026-05-04 23:04 | 40.36743 | -73.42983 | 12173 ft | 311 kts | 102° |
| 2026-05-04 23:04 | 40.36166 | -73.40179 | 12328 ft | 327 kts | 103° |
| 2026-05-04 23:04 | 40.35562 | -73.37260 | 12658 ft | 335 kts | 103° |
| 2026-05-04 23:04 | 40.34966 | -73.34398 | 13249 ft | 334 kts | 103° |
| 2026-05-04 23:05 | 40.34356 | -73.31467 | 13857 ft | 333 kts | 104° |
| 2026-05-04 23:05 | 40.33736 | -73.28592 | 14401 ft | 332 kts | 107° |
| 2026-05-04 23:05 | 40.32931 | -73.25772 | 14962 ft | 330 kts | 113° |
| 2026-05-04 23:05 | 40.31976 | -73.23121 | 15515 ft | 327 kts | 117° |
| 2026-05-04 23:06 | 40.30877 | -73.20533 | 16114 ft | 323 kts | 122° |
| 2026-05-04 23:06 | 40.29674 | -73.18070 | 16683 ft | 318 kts | 126° |
| 2026-05-04 23:06 | 40.28444 | -73.15685 | 17230 ft | 317 kts | 125° |
| 2026-05-04 23:06 | 40.27201 | -73.13229 | 17376 ft | 329 kts | 124° |
| 2026-05-04 23:07 | 40.25924 | -73.10674 | 17505 ft | 342 kts | 124° |
| 2026-05-04 23:07 | 40.24599 | -73.08016 | 17658 ft | 355 kts | 124° |
| 2026-05-04 23:07 | 40.23224 | -73.05259 | 17777 ft | 367 kts | 124° |
| 2026-05-04 23:07 | 40.21822 | -73.02452 | 17928 ft | 379 kts | 124° |
| 2026-05-04 23:08 | 40.20355 | -72.99517 | 18073 ft | 391 kts | 124° |
| 2026-05-04 23:08 | 40.18845 | -72.96502 | 18197 ft | 403 kts | 124° |
| 2026-05-04 23:08 | 40.17288 | -72.93396 | 18320 ft | 414 kts | 124° |
| 2026-05-04 23:08 | 40.15692 | -72.90215 | 18514 ft | 422 kts | 124° |
| 2026-05-04 23:09 | 40.14078 | -72.87000 | 18867 ft | 424 kts | 124° |
| 2026-05-04 23:09 | 40.12453 | -72.83765 | 19247 ft | 427 kts | 124° |
| 2026-05-04 23:09 | 40.10816 | -72.80512 | 19600 ft | 430 kts | 124° |
| 2026-05-04 23:09 | 40.09205 | -72.77263 | 19966 ft | 433 kts | 122° |
| 2026-05-04 23:10 | 40.07668 | -72.73879 | 20343 ft | 435 kts | 120° |
| 2026-05-04 23:10 | 40.06177 | -72.70480 | 20708 ft | 438 kts | 120° |
| 2026-05-04 23:10 | 40.04654 | -72.67021 | 21084 ft | 441 kts | 121° |
| 2026-05-04 23:10 | 40.03109 | -72.63558 | 21491 ft | 443 kts | 121° |
| 2026-05-04 23:11 | 40.01545 | -72.60088 | 21852 ft | 446 kts | 121° |
| 2026-05-04 23:11 | 39.99960 | -72.56595 | 22242 ft | 448 kts | 121° |
| 2026-05-04 23:11 | 39.98364 | -72.53089 | 22622 ft | 451 kts | 121° |
| 2026-05-04 23:11 | 39.96759 | -72.49568 | 22933 ft | 454 kts | 121° |
| 2026-05-04 23:12 | 39.95163 | -72.46010 | 23010 ft | 454 kts | 121° |
| 2026-05-04 23:12 | 39.93599 | -72.42436 | 23010 ft | 454 kts | 120° |
| 2026-05-04 23:12 | 39.92042 | -72.38862 | 23003 ft | 454 kts | 120° |
| 2026-05-04 23:12 | 39.90482 | -72.35293 | 23009 ft | 453 kts | 120° |
| 2026-05-04 23:13 | 39.88937 | -72.31777 | 23009 ft | 454 kts | 120° |
| 2026-05-04 23:13 | 39.87367 | -72.28216 | 23024 ft | 453 kts | 121° |
| 2026-05-04 23:13 | 39.85795 | -72.24658 | 23021 ft | 453 kts | 121° |
| 2026-05-04 23:13 | 39.84221 | -72.21101 | 23060 ft | 455 kts | 121° |
| 2026-05-04 23:14 | 39.82638 | -72.17528 | 23452 ft | 456 kts | 121° |
| 2026-05-04 23:14 | 39.81048 | -72.13943 | 23817 ft | 458 kts | 121° |
| 2026-05-04 23:14 | 39.79449 | -72.10340 | 24149 ft | 461 kts | 121° |
| 2026-05-04 23:14 | 39.77847 | -72.06736 | 24500 ft | 462 kts | 121° |
| 2026-05-04 23:15 | 39.76230 | -72.03102 | 24822 ft | 464 kts | 121° |
| 2026-05-04 23:15 | 39.74633 | -71.99515 | 25135 ft | 467 kts | 121° |
| 2026-05-04 23:15 | 39.72987 | -71.95867 | 25439 ft | 469 kts | 122° |
| 2026-05-04 23:15 | 39.71294 | -71.92229 | 25786 ft | 471 kts | 123° |
| 2026-05-04 23:16 | 39.69587 | -71.88592 | 26102 ft | 473 kts | 123° |
| 2026-05-04 23:16 | 39.67874 | -71.84940 | 26411 ft | 475 kts | 123° |
| 2026-05-04 23:16 | 39.66151 | -71.81259 | 26703 ft | 478 kts | 123° |
| 2026-05-04 23:16 | 39.64425 | -71.77566 | 27039 ft | 480 kts | 123° |
| 2026-05-04 23:17 | 39.62694 | -71.73860 | 27333 ft | 482 kts | 123° |
| 2026-05-04 23:17 | 39.60951 | -71.70134 | 27638 ft | 484 kts | 123° |
| 2026-05-04 23:17 | 39.59199 | -71.66392 | 27915 ft | 487 kts | 123° |
| 2026-05-04 23:17 | 39.57460 | -71.62683 | 28204 ft | 488 kts | 123° |
| 2026-05-04 23:18 | 39.55693 | -71.58918 | 28496 ft | 491 kts | 123° |
| 2026-05-04 23:18 | 39.53916 | -71.55136 | 28774 ft | 493 kts | 123° |
| 2026-05-04 23:18 | 39.52126 | -71.51331 | 29049 ft | 495 kts | 123° |
| 2026-05-04 23:18 | 39.50330 | -71.47519 | 29343 ft | 497 kts | 123° |
| 2026-05-04 23:19 | 39.48525 | -71.43693 | 29610 ft | 499 kts | 123° |
| 2026-05-04 23:19 | 39.46711 | -71.39851 | 29884 ft | 501 kts | 123° |
| 2026-05-04 23:19 | 39.44885 | -71.36005 | 30131 ft | 503 kts | 125° |
| 2026-05-04 23:19 | 39.42760 | -71.32434 | 30369 ft | 500 kts | 137° |
| 2026-05-04 23:20 | 39.40189 | -71.29450 | 30608 ft | 495 kts | 148° |
| 2026-05-04 23:20 | 39.37329 | -71.27152 | 30847 ft | 490 kts | 156° |
| 2026-05-04 23:20 | 39.34342 | -71.24998 | 31088 ft | 492 kts | 156° |
| 2026-05-04 23:20 | 39.31364 | -71.22808 | 31360 ft | 493 kts | 155° |
| 2026-05-04 23:21 | 39.28391 | -71.20592 | 31616 ft | 495 kts | 155° |
| 2026-05-04 23:21 | 39.25411 | -71.18355 | 31876 ft | 496 kts | 155° |
| 2026-05-04 23:21 | 39.22421 | -71.16107 | 32120 ft | 497 kts | 155° |
| 2026-05-04 23:21 | 39.19433 | -71.13861 | 32381 ft | 498 kts | 156° |
| 2026-05-04 23:22 | 39.16436 | -71.11609 | 32607 ft | 499 kts | 156° |
| 2026-05-04 23:22 | 39.13431 | -71.09354 | 32807 ft | 500 kts | 156° |
| 2026-05-04 23:22 | 39.10424 | -71.07101 | 32985 ft | 501 kts | 156° |
| 2026-05-04 23:22 | 39.07408 | -71.04844 | 33158 ft | 502 kts | 156° |
| 2026-05-04 23:23 | 39.04387 | -71.02586 | 33316 ft | 503 kts | 156° |
| 2026-05-04 23:23 | 39.01360 | -71.00326 | 33456 ft | 503 kts | 156° |
| 2026-05-04 23:23 | 38.98336 | -70.98070 | 33584 ft | 504 kts | 156° |
| 2026-05-04 23:23 | 38.95347 | -70.95843 | 33760 ft | 503 kts | 157° |
| 2026-05-04 23:24 | 38.92324 | -70.93591 | 33943 ft | 502 kts | 157° |
| 2026-05-04 23:24 | 38.89297 | -70.91340 | 34124 ft | 502 kts | 157° |
| 2026-05-04 23:24 | 38.86278 | -70.89095 | 34235 ft | 501 kts | 157° |
| 2026-05-04 23:24 | 38.83258 | -70.86855 | 34362 ft | 501 kts | 157° |
| 2026-05-04 23:25 | 38.80236 | -70.84616 | 34471 ft | 502 kts | 157° |
| 2026-05-04 23:25 | 38.77216 | -70.82380 | 34578 ft | 502 kts | 158° |
| 2026-05-04 23:25 | 38.74190 | -70.80142 | 34679 ft | 502 kts | 158° |
| 2026-05-04 23:25 | 38.71164 | -70.77906 | 34804 ft | 502 kts | 158° |
| 2026-05-04 23:26 | 38.65227 | -70.73525 | 35007 ft | 502 kts | 158° |
| 2026-05-04 23:26 | 38.59169 | -70.69064 | 35089 ft | 502 kts | 158° |
| 2026-05-04 23:27 | 38.53159 | -70.64646 | 35095 ft | 502 kts | 158° |
| 2026-05-04 23:27 | 38.47104 | -70.60206 | 35107 ft | 502 kts | 159° |
| 2026-05-04 23:28 | 38.41049 | -70.55773 | 35103 ft | 502 kts | 159° |
| 2026-05-04 23:28 | 38.34995 | -70.51351 | 35095 ft | 502 kts | 159° |
| 2026-05-04 23:29 | 38.28950 | -70.46943 | 35109 ft | 502 kts | 159° |
| 2026-05-04 23:29 | 38.22895 | -70.42537 | 35107 ft | 501 kts | 159° |
| 2026-05-04 23:30 | 38.16887 | -70.38135 | 35100 ft | 504 kts | 157° |
| 2026-05-04 23:30 | 38.11292 | -70.32531 | 35106 ft | 522 kts | 143° |
| 2026-05-04 23:31 | 38.06338 | -70.25712 | 35106 ft | 526 kts | 140° |
| 2026-05-04 23:31 | 38.01376 | -70.18900 | 35109 ft | 526 kts | 141° |
| 2026-05-04 23:32 | 37.96386 | -70.12114 | 35119 ft | 526 kts | 141° |
| 2026-05-04 23:32 | 37.91416 | -70.05374 | 35123 ft | 527 kts | 141° |
| 2026-05-04 23:33 | 37.86414 | -69.98600 | 35123 ft | 527 kts | 141° |
| 2026-05-04 23:33 | 37.81399 | -69.91826 | 35131 ft | 527 kts | 141° |
| 2026-05-04 23:34 | 37.76385 | -69.85067 | 35142 ft | 527 kts | 142° |
| 2026-05-04 23:34 | 37.71362 | -69.78311 | 35140 ft | 527 kts | 142° |
| 2026-05-04 23:35 | 37.66335 | -69.71565 | 35142 ft | 527 kts | 142° |
| 2026-05-04 23:35 | 37.61312 | -69.64837 | 35148 ft | 527 kts | 142° |
| 2026-05-04 23:36 | 37.56337 | -69.58188 | 35154 ft | 527 kts | 142° |
| 2026-05-04 23:36 | 37.51306 | -69.51476 | 35159 ft | 526 kts | 142° |
| 2026-05-04 23:37 | 37.46275 | -69.44779 | 35166 ft | 526 kts | 143° |
| 2026-05-04 23:37 | 37.41249 | -69.38102 | 35168 ft | 525 kts | 143° |